sensor_id;sensor_type;location;lat;lon;timestamp;temperature;humidity
8792;DHT22;4432;50.890;4.744;2023-02-11T00:00:09;6.50;99.90
8792;DHT22;4432;50.890;4.744;2023-02-11T00:02:35;6.50;99.90
8792;DHT22;4432;50.890;4.744;2023-02-11T00:05:01;6.50;99.90
8792;DHT22;4432;50.890;4.744;2023-02-11T00:07:31;6.40;99.90
8792;DHT22;4432;50.890;4.744;2023-02-11T00:09:57;6.40;99.90
8792;DHT22;4432;50.890;4.744;2023-02-11T00:12:23;6.30;99.90
8792;DHT22;4432;50.890;4.744;2023-02-11T00:14:49;6.30;99.90
8792;DHT22;4432;50.890;4.744;2023-02-11T00:17:15;6.30;99.90
8792;DHT22;4432;50.890;4.744;2023-02-11T00:19:41;6.30;99.90
8792;DHT22;4432;50.890;4.744;2023-02-11T00:22:07;6.20;99.90
8792;DHT22;4432;50.890;4.744;2023-02-11T00:24:32;6.20;99.90
8792;DHT22;4432;50.890;4.744;2023-02-11T00:26:58;6.20;99.90
8792;DHT22;4432;50.890;4.744;2023-02-11T00:29:24;6.10;99.90
8792;DHT22;4432;50.890;4.744;2023-02-11T00:31:50;6.10;99.90
8792;DHT22;4432;50.890;4.744;2023-02-11T00:34:15;6.10;99.90
8792;DHT22;4432;50.890;4.744;2023-02-11T00:36:41;6.10;99.90
8792;DHT22;4432;50.890;4.744;2023-02-11T00:39:07;6.10;99.90
8792;DHT22;4432;50.890;4.744;2023-02-11T00:41:33;6.00;99.90
8792;DHT22;4432;50.890;4.744;2023-02-11T00:44:00;6.00;99.90
8792;DHT22;4432;50.890;4.744;2023-02-11T00:46:26;5.90;99.90
8792;DHT22;4432;50.890;4.744;2023-02-11T00:48:51;5.90;99.90
8792;DHT22;4432;50.890;4.744;2023-02-11T00:51:25;5.80;99.90
8792;DHT22;4432;50.890;4.744;2023-02-11T00:53:51;5.80;99.90
8792;DHT22;4432;50.890;4.744;2023-02-11T00:56:17;5.80;99.90
8792;DHT22;4432;50.890;4.744;2023-02-11T00:58:43;5.80;99.90
8792;DHT22;4432;50.890;4.744;2023-02-11T01:01:09;5.80;99.90
8792;DHT22;4432;50.890;4.744;2023-02-11T01:03:35;5.70;99.90
8792;DHT22;4432;50.890;4.744;2023-02-11T01:06:01;5.70;99.90
8792;DHT22;4432;50.890;4.744;2023-02-11T01:08:27;5.70;99.90
8792;DHT22;4432;50.890;4.744;2023-02-11T01:10:58;5.70;99.90
8792;DHT22;4432;50.890;4.744;2023-02-11T01:13:25;5.70;99.90
8792;DHT22;4432;50.890;4.744;2023-02-11T01:15:51;5.70;99.90
8792;DHT22;4432;50.890;4.744;2023-02-11T01:18:17;5.70;99.90
8792;DHT22;4432;50.890;4.744;2023-02-11T01:20:43;5.70;99.90
8792;DHT22;4432;50.890;4.744;2023-02-11T01:23:09;5.80;99.90
8792;DHT22;4432;50.890;4.744;2023-02-11T01:25:35;5.80;99.90
8792;DHT22;4432;50.890;4.744;2023-02-11T01:28:00;5.80;99.90
8792;DHT22;4432;50.890;4.744;2023-02-11T01:30:26;5.90;99.90
8792;DHT22;4432;50.890;4.744;2023-02-11T01:32:52;5.90;99.90
8792;DHT22;4432;50.890;4.744;2023-02-11T01:35:18;6.00;99.90
8792;DHT22;4432;50.890;4.744;2023-02-11T01:37:43;6.00;99.90
8792;DHT22;4432;50.890;4.744;2023-02-11T01:40:16;6.10;99.90
8792;DHT22;4432;50.890;4.744;2023-02-11T01:42:42;6.10;99.90
8792;DHT22;4432;50.890;4.744;2023-02-11T01:48:14;6.00;99.90
8792;DHT22;4432;50.890;4.744;2023-02-11T01:50:44;5.90;99.90
8792;DHT22;4432;50.890;4.744;2023-02-11T01:53:10;5.80;99.90
8792;DHT22;4432;50.890;4.744;2023-02-11T01:55:55;5.80;99.90
8792;DHT22;4432;50.890;4.744;2023-02-11T01:58:43;5.70;99.90
8792;DHT22;4432;50.890;4.744;2023-02-11T02:01:13;5.70;99.90
8792;DHT22;4432;50.890;4.744;2023-02-11T02:03:43;5.60;99.90
8792;DHT22;4432;50.890;4.744;2023-02-11T02:06:17;5.70;99.90
8792;DHT22;4432;50.890;4.744;2023-02-11T02:09:03;5.70;99.90
8792;DHT22;4432;50.890;4.744;2023-02-11T02:11:30;5.90;99.90
8792;DHT22;4432;50.890;4.744;2023-02-11T02:13:56;5.90;99.90
8792;DHT22;4432;50.890;4.744;2023-02-11T02:16:29;5.90;99.90
8792;DHT22;4432;50.890;4.744;2023-02-11T02:33:43;6.10;99.90
8792;DHT22;4432;50.890;4.744;2023-02-11T02:36:23;6.20;99.90
8792;DHT22;4432;50.890;4.744;2023-02-11T02:39:11;6.20;99.90
8792;DHT22;4432;50.890;4.744;2023-02-11T02:41:39;6.30;99.90
8792;DHT22;4432;50.890;4.744;2023-02-11T02:44:07;6.30;99.90
8792;DHT22;4432;50.890;4.744;2023-02-11T02:46:34;6.20;99.90
8792;DHT22;4432;50.890;4.744;2023-02-11T02:49:00;6.20;99.90
8792;DHT22;4432;50.890;4.744;2023-02-11T02:51:29;6.20;99.90
8792;DHT22;4432;50.890;4.744;2023-02-11T03:02:26;6.30;99.90
8792;DHT22;4432;50.890;4.744;2023-02-11T03:08:01;6.30;99.90
8792;DHT22;4432;50.890;4.744;2023-02-11T03:10:40;6.40;99.90
8792;DHT22;4432;50.890;4.744;2023-02-11T03:13:07;6.40;99.90
8792;DHT22;4432;50.890;4.744;2023-02-11T03:15:38;6.40;99.90
8792;DHT22;4432;50.890;4.744;2023-02-11T03:18:08;6.40;99.90
8792;DHT22;4432;50.890;4.744;2023-02-11T03:20:35;6.40;99.90
8792;DHT22;4432;50.890;4.744;2023-02-11T03:23:07;6.40;99.90
8792;DHT22;4432;50.890;4.744;2023-02-11T03:25:37;6.40;99.90
8792;DHT22;4432;50.890;4.744;2023-02-11T03:28:17;6.40;99.90
8792;DHT22;4432;50.890;4.744;2023-02-11T03:33:33;6.50;99.90
8792;DHT22;4432;50.890;4.744;2023-02-11T03:36:08;6.40;99.90
8792;DHT22;4432;50.890;4.744;2023-02-11T03:38:45;6.50;99.90
8792;DHT22;4432;50.890;4.744;2023-02-11T03:41:14;6.50;99.90
8792;DHT22;4432;50.890;4.744;2023-02-11T03:43:46;6.50;99.90
8792;DHT22;4432;50.890;4.744;2023-02-11T03:46:14;6.50;99.90
8792;DHT22;4432;50.890;4.744;2023-02-11T03:48:45;6.50;99.90
8792;DHT22;4432;50.890;4.744;2023-02-11T03:51:14;6.50;99.90
8792;DHT22;4432;50.890;4.744;2023-02-11T03:53:42;6.50;99.90
8792;DHT22;4432;50.890;4.744;2023-02-11T03:56:14;6.50;99.90
8792;DHT22;4432;50.890;4.744;2023-02-11T03:58:43;6.50;99.90
8792;DHT22;4432;50.890;4.744;2023-02-11T04:01:09;6.50;99.90
8792;DHT22;4432;50.890;4.744;2023-02-11T04:03:35;6.50;99.90
8792;DHT22;4432;50.890;4.744;2023-02-11T04:06:01;6.50;99.90
8792;DHT22;4432;50.890;4.744;2023-02-11T04:08:27;6.50;99.90
8792;DHT22;4432;50.890;4.744;2023-02-11T04:10:53;6.50;99.90
8792;DHT22;4432;50.890;4.744;2023-02-11T04:13:18;6.50;99.90
8792;DHT22;4432;50.890;4.744;2023-02-11T04:15:44;6.50;99.90
8792;DHT22;4432;50.890;4.744;2023-02-11T04:18:10;6.50;99.90
8792;DHT22;4432;50.890;4.744;2023-02-11T04:20:35;6.50;99.90
8792;DHT22;4432;50.890;4.744;2023-02-11T04:23:01;6.50;99.90
8792;DHT22;4432;50.890;4.744;2023-02-11T04:25:27;6.50;99.90
8792;DHT22;4432;50.890;4.744;2023-02-11T04:27:53;6.50;99.90
8792;DHT22;4432;50.890;4.744;2023-02-11T04:30:19;6.50;99.90
8792;DHT22;4432;50.890;4.744;2023-02-11T04:32:45;6.60;99.90
8792;DHT22;4432;50.890;4.744;2023-02-11T04:35:10;6.60;99.90
8792;DHT22;4432;50.890;4.744;2023-02-11T04:37:36;6.60;99.90
8792;DHT22;4432;50.890;4.744;2023-02-11T04:40:02;6.60;99.90
8792;DHT22;4432;50.890;4.744;2023-02-11T04:42:28;6.60;99.90
8792;DHT22;4432;50.890;4.744;2023-02-11T04:44:54;6.60;99.90
8792;DHT22;4432;50.890;4.744;2023-02-11T04:47:20;6.60;99.90
8792;DHT22;4432;50.890;4.744;2023-02-11T04:49:45;6.60;99.90
8792;DHT22;4432;50.890;4.744;2023-02-11T04:52:11;6.60;99.90
8792;DHT22;4432;50.890;4.744;2023-02-11T04:54:37;6.60;99.90
8792;DHT22;4432;50.890;4.744;2023-02-11T04:57:02;6.60;99.90
8792;DHT22;4432;50.890;4.744;2023-02-11T04:59:28;6.60;99.90
8792;DHT22;4432;50.890;4.744;2023-02-11T05:01:54;6.60;99.90
8792;DHT22;4432;50.890;4.744;2023-02-11T05:04:20;6.60;99.90
8792;DHT22;4432;50.890;4.744;2023-02-11T05:06:46;6.60;99.90
8792;DHT22;4432;50.890;4.744;2023-02-11T05:09:12;6.60;99.90
8792;DHT22;4432;50.890;4.744;2023-02-11T05:11:38;6.60;99.90
8792;DHT22;4432;50.890;4.744;2023-02-11T05:14:06;6.60;99.90
8792;DHT22;4432;50.890;4.744;2023-02-11T05:16:32;6.60;99.90
8792;DHT22;4432;50.890;4.744;2023-02-11T05:18:58;6.60;99.90
8792;DHT22;4432;50.890;4.744;2023-02-11T05:21:24;6.50;99.90
8792;DHT22;4432;50.890;4.744;2023-02-11T05:23:50;6.60;99.90
8792;DHT22;4432;50.890;4.744;2023-02-11T05:26:16;6.50;99.90
8792;DHT22;4432;50.890;4.744;2023-02-11T05:28:42;6.60;99.90
8792;DHT22;4432;50.890;4.744;2023-02-11T05:31:08;6.60;99.90
8792;DHT22;4432;50.890;4.744;2023-02-11T05:33:34;6.60;99.90
8792;DHT22;4432;50.890;4.744;2023-02-11T05:36:02;6.60;99.90
8792;DHT22;4432;50.890;4.744;2023-02-11T05:38:28;6.60;99.90
8792;DHT22;4432;50.890;4.744;2023-02-11T05:40:54;6.60;99.90
8792;DHT22;4432;50.890;4.744;2023-02-11T05:43:20;6.70;99.90
8792;DHT22;4432;50.890;4.744;2023-02-11T05:45:45;6.70;99.90
8792;DHT22;4432;50.890;4.744;2023-02-11T05:48:11;6.70;99.90
8792;DHT22;4432;50.890;4.744;2023-02-11T05:50:37;6.60;99.90
8792;DHT22;4432;50.890;4.744;2023-02-11T05:53:03;6.60;99.90
8792;DHT22;4432;50.890;4.744;2023-02-11T05:55:30;6.70;99.90
8792;DHT22;4432;50.890;4.744;2023-02-11T05:57:56;6.70;99.90
8792;DHT22;4432;50.890;4.744;2023-02-11T06:00:22;6.70;99.90
8792;DHT22;4432;50.890;4.744;2023-02-11T06:02:47;6.70;99.90
8792;DHT22;4432;50.890;4.744;2023-02-11T06:05:13;6.60;99.90
8792;DHT22;4432;50.890;4.744;2023-02-11T06:07:39;6.70;99.90
8792;DHT22;4432;50.890;4.744;2023-02-11T06:10:05;6.70;99.90
8792;DHT22;4432;50.890;4.744;2023-02-11T06:12:31;6.70;99.90
8792;DHT22;4432;50.890;4.744;2023-02-11T06:14:57;6.70;99.90
8792;DHT22;4432;50.890;4.744;2023-02-11T06:17:23;6.70;99.90
8792;DHT22;4432;50.890;4.744;2023-02-11T06:19:50;6.70;99.90
8792;DHT22;4432;50.890;4.744;2023-02-11T06:22:15;6.70;99.90
8792;DHT22;4432;50.890;4.744;2023-02-11T06:24:41;6.70;99.90
8792;DHT22;4432;50.890;4.744;2023-02-11T06:27:07;6.70;99.90
8792;DHT22;4432;50.890;4.744;2023-02-11T06:29:32;6.60;99.90
8792;DHT22;4432;50.890;4.744;2023-02-11T06:31:58;6.70;99.90
8792;DHT22;4432;50.890;4.744;2023-02-11T06:34:24;6.70;99.90
8792;DHT22;4432;50.890;4.744;2023-02-11T06:36:50;6.70;99.90
8792;DHT22;4432;50.890;4.744;2023-02-11T06:39:15;6.70;99.90
8792;DHT22;4432;50.890;4.744;2023-02-11T06:41:41;6.70;99.90
8792;DHT22;4432;50.890;4.744;2023-02-11T06:44:07;6.70;99.90
8792;DHT22;4432;50.890;4.744;2023-02-11T06:46:32;6.70;99.90
8792;DHT22;4432;50.890;4.744;2023-02-11T06:48:58;6.70;99.90
8792;DHT22;4432;50.890;4.744;2023-02-11T06:51:24;6.70;99.90
8792;DHT22;4432;50.890;4.744;2023-02-11T06:53:50;6.60;99.90
8792;DHT22;4432;50.890;4.744;2023-02-11T06:56:18;6.70;99.90
8792;DHT22;4432;50.890;4.744;2023-02-11T06:58:44;6.70;99.90
8792;DHT22;4432;50.890;4.744;2023-02-11T07:01:12;6.70;99.90
8792;DHT22;4432;50.890;4.744;2023-02-11T07:03:40;6.70;99.90
8792;DHT22;4432;50.890;4.744;2023-02-11T07:06:11;6.80;99.90
8792;DHT22;4432;50.890;4.744;2023-02-11T07:08:37;6.80;99.90
8792;DHT22;4432;50.890;4.744;2023-02-11T07:11:11;6.70;99.90
8792;DHT22;4432;50.890;4.744;2023-02-11T07:13:37;6.80;99.90
8792;DHT22;4432;50.890;4.744;2023-02-11T07:16:08;6.80;99.90
8792;DHT22;4432;50.890;4.744;2023-02-11T07:18:34;6.80;99.90
8792;DHT22;4432;50.890;4.744;2023-02-11T07:21:04;6.80;99.90
8792;DHT22;4432;50.890;4.744;2023-02-11T07:23:30;6.90;99.90
8792;DHT22;4432;50.890;4.744;2023-02-11T07:25:56;6.90;99.90
8792;DHT22;4432;50.890;4.744;2023-02-11T07:28:21;6.90;99.90
8792;DHT22;4432;50.890;4.744;2023-02-11T07:30:47;6.90;99.90
8792;DHT22;4432;50.890;4.744;2023-02-11T07:33:13;6.90;99.90
8792;DHT22;4432;50.890;4.744;2023-02-11T07:35:38;6.90;99.90
8792;DHT22;4432;50.890;4.744;2023-02-11T07:38:04;7.00;99.90
8792;DHT22;4432;50.890;4.744;2023-02-11T07:40:30;7.00;99.90
8792;DHT22;4432;50.890;4.744;2023-02-11T07:42:56;7.00;99.90
8792;DHT22;4432;50.890;4.744;2023-02-11T07:45:22;7.00;99.90
8792;DHT22;4432;50.890;4.744;2023-02-11T07:47:49;7.00;99.90
8792;DHT22;4432;50.890;4.744;2023-02-11T07:50:16;7.10;99.90
8792;DHT22;4432;50.890;4.744;2023-02-11T07:52:41;7.10;99.90
8792;DHT22;4432;50.890;4.744;2023-02-11T07:55:07;7.10;99.90
8792;DHT22;4432;50.890;4.744;2023-02-11T07:57:34;7.10;99.90
8792;DHT22;4432;50.890;4.744;2023-02-11T08:00:00;7.10;99.90
8792;DHT22;4432;50.890;4.744;2023-02-11T08:02:26;7.20;99.90
8792;DHT22;4432;50.890;4.744;2023-02-11T08:04:52;7.10;99.90
8792;DHT22;4432;50.890;4.744;2023-02-11T08:07:18;7.10;99.90
8792;DHT22;4432;50.890;4.744;2023-02-11T08:09:44;7.20;99.90
8792;DHT22;4432;50.890;4.744;2023-02-11T08:12:09;7.10;99.90
8792;DHT22;4432;50.890;4.744;2023-02-11T08:14:35;7.10;99.90
8792;DHT22;4432;50.890;4.744;2023-02-11T08:17:02;7.20;99.90
8792;DHT22;4432;50.890;4.744;2023-02-11T08:19:27;7.30;99.90
8792;DHT22;4432;50.890;4.744;2023-02-11T08:21:56;7.30;99.90
8792;DHT22;4432;50.890;4.744;2023-02-11T08:24:24;7.30;99.90
8792;DHT22;4432;50.890;4.744;2023-02-11T08:26:49;7.30;99.90
8792;DHT22;4432;50.890;4.744;2023-02-11T08:29:16;7.30;99.90
8792;DHT22;4432;50.890;4.744;2023-02-11T08:31:44;7.40;99.90
8792;DHT22;4432;50.890;4.744;2023-02-11T08:34:11;7.40;99.90
8792;DHT22;4432;50.890;4.744;2023-02-11T08:36:39;7.40;99.90
8792;DHT22;4432;50.890;4.744;2023-02-11T08:39:11;7.50;99.90
8792;DHT22;4432;50.890;4.744;2023-02-11T08:41:55;7.50;99.90
8792;DHT22;4432;50.890;4.744;2023-02-11T08:44:22;7.60;99.90
8792;DHT22;4432;50.890;4.744;2023-02-11T08:46:49;7.60;99.90
8792;DHT22;4432;50.890;4.744;2023-02-11T08:49:16;7.60;99.90
8792;DHT22;4432;50.890;4.744;2023-02-11T08:51:42;7.60;99.90
8792;DHT22;4432;50.890;4.744;2023-02-11T08:54:08;7.60;99.90
8792;DHT22;4432;50.890;4.744;2023-02-11T08:56:35;7.50;99.90
8792;DHT22;4432;50.890;4.744;2023-02-11T08:59:01;7.50;99.90
8792;DHT22;4432;50.890;4.744;2023-02-11T09:01:29;7.50;99.90
8792;DHT22;4432;50.890;4.744;2023-02-11T09:03:56;7.50;99.90
8792;DHT22;4432;50.890;4.744;2023-02-11T09:06:22;7.50;99.90
8792;DHT22;4432;50.890;4.744;2023-02-11T09:08:51;7.50;99.90
8792;DHT22;4432;50.890;4.744;2023-02-11T09:11:23;7.50;99.90
8792;DHT22;4432;50.890;4.744;2023-02-11T09:13:49;7.60;99.90
8792;DHT22;4432;50.890;4.744;2023-02-11T09:16:21;7.60;99.90
8792;DHT22;4432;50.890;4.744;2023-02-11T09:18:47;7.60;99.90
8792;DHT22;4432;50.890;4.744;2023-02-11T09:21:13;7.70;99.90
8792;DHT22;4432;50.890;4.744;2023-02-11T09:23:40;7.60;99.90
8792;DHT22;4432;50.890;4.744;2023-02-11T09:26:24;7.70;99.90
8792;DHT22;4432;50.890;4.744;2023-02-11T09:28:49;7.70;99.90
8792;DHT22;4432;50.890;4.744;2023-02-11T09:31:18;7.70;99.90
8792;DHT22;4432;50.890;4.744;2023-02-11T09:33:46;7.80;99.90
8792;DHT22;4432;50.890;4.744;2023-02-11T09:36:15;7.80;99.90
8792;DHT22;4432;50.890;4.744;2023-02-11T09:38:41;7.80;99.90
8792;DHT22;4432;50.890;4.744;2023-02-11T09:44:01;7.90;99.90
8792;DHT22;4432;50.890;4.744;2023-02-11T09:46:36;8.00;99.90
8792;DHT22;4432;50.890;4.744;2023-02-11T09:49:05;7.90;99.90
8792;DHT22;4432;50.890;4.744;2023-02-11T09:51:58;7.90;99.90
8792;DHT22;4432;50.890;4.744;2023-02-11T09:54:51;7.90;99.90
8792;DHT22;4432;50.890;4.744;2023-02-11T09:57:18;7.90;99.90
8792;DHT22;4432;50.890;4.744;2023-02-11T09:59:43;7.90;99.90
8792;DHT22;4432;50.890;4.744;2023-02-11T10:02:22;8.00;99.90
8792;DHT22;4432;50.890;4.744;2023-02-11T10:07:54;8.10;99.90
8792;DHT22;4432;50.890;4.744;2023-02-11T10:16:28;8.20;99.90
8792;DHT22;4432;50.890;4.744;2023-02-11T10:24:54;8.30;99.90
8792;DHT22;4432;50.890;4.744;2023-02-11T10:27:33;8.30;99.90
8792;DHT22;4432;50.890;4.744;2023-02-11T10:30:23;8.40;99.90
8792;DHT22;4432;50.890;4.744;2023-02-11T10:32:55;8.40;99.90
8792;DHT22;4432;50.890;4.744;2023-02-11T10:35:24;8.40;99.90
8792;DHT22;4432;50.890;4.744;2023-02-11T10:37:52;8.50;99.90
8792;DHT22;4432;50.890;4.744;2023-02-11T10:40:26;8.50;99.90
8792;DHT22;4432;50.890;4.744;2023-02-11T10:42:54;8.50;99.90
8792;DHT22;4432;50.890;4.744;2023-02-11T10:47:54;8.50;99.90
8792;DHT22;4432;50.890;4.744;2023-02-11T10:50:38;8.50;99.90
8792;DHT22;4432;50.890;4.744;2023-02-11T10:53:19;8.50;99.90
8792;DHT22;4432;50.890;4.744;2023-02-11T10:56:05;8.60;99.90
8792;DHT22;4432;50.890;4.744;2023-02-11T10:58:44;8.50;99.90
8792;DHT22;4432;50.890;4.744;2023-02-11T11:01:11;8.50;99.90
8792;DHT22;4432;50.890;4.744;2023-02-11T11:03:49;8.60;99.90
8792;DHT22;4432;50.890;4.744;2023-02-11T11:06:28;8.70;99.90
8792;DHT22;4432;50.890;4.744;2023-02-11T11:08:55;8.80;99.90
8792;DHT22;4432;50.890;4.744;2023-02-11T11:11:23;8.80;99.90
8792;DHT22;4432;50.890;4.744;2023-02-11T11:16:37;8.80;99.90
8792;DHT22;4432;50.890;4.744;2023-02-11T11:21:53;8.80;99.90
8792;DHT22;4432;50.890;4.744;2023-02-11T11:24:28;8.80;99.90
8792;DHT22;4432;50.890;4.744;2023-02-11T11:27:00;8.80;99.90
8792;DHT22;4432;50.890;4.744;2023-02-11T11:31:57;8.80;99.90
8792;DHT22;4432;50.890;4.744;2023-02-11T11:34:40;8.80;99.90
8792;DHT22;4432;50.890;4.744;2023-02-11T11:37:25;8.80;99.90
8792;DHT22;4432;50.890;4.744;2023-02-11T11:42:33;8.80;99.90
8792;DHT22;4432;50.890;4.744;2023-02-11T11:45:23;8.80;99.90
8792;DHT22;4432;50.890;4.744;2023-02-11T11:47:53;8.80;99.90
8792;DHT22;4432;50.890;4.744;2023-02-11T11:50:39;8.80;99.90
8792;DHT22;4432;50.890;4.744;2023-02-11T11:55:49;8.90;99.90
8792;DHT22;4432;50.890;4.744;2023-02-11T11:58:18;9.00;99.90
8792;DHT22;4432;50.890;4.744;2023-02-11T12:04:20;9.10;99.90
8792;DHT22;4432;50.890;4.744;2023-02-11T12:06:40;9.20;99.90
8792;DHT22;4432;50.890;4.744;2023-02-11T12:12:09;9.30;99.90
8792;DHT22;4432;50.890;4.744;2023-02-11T12:14:47;9.30;99.90
8792;DHT22;4432;50.890;4.744;2023-02-11T12:22:28;9.40;99.90
8792;DHT22;4432;50.890;4.744;2023-02-11T12:38:31;9.40;99.90
8792;DHT22;4432;50.890;4.744;2023-02-11T12:41:14;9.40;99.90
8792;DHT22;4432;50.890;4.744;2023-02-11T12:43:43;9.40;99.90
8792;DHT22;4432;50.890;4.744;2023-02-11T12:49:29;9.50;99.90
8792;DHT22;4432;50.890;4.744;2023-02-11T12:52:07;9.50;99.90
8792;DHT22;4432;50.890;4.744;2023-02-11T12:54:37;9.50;99.90
8792;DHT22;4432;50.890;4.744;2023-02-11T12:57:16;9.50;99.90
8792;DHT22;4432;50.890;4.744;2023-02-11T13:07:50;9.50;99.90
8792;DHT22;4432;50.890;4.744;2023-02-11T13:12:50;9.50;99.90
8792;DHT22;4432;50.890;4.744;2023-02-11T13:15:35;9.50;99.90
8792;DHT22;4432;50.890;4.744;2023-02-11T13:20:57;9.50;99.90
8792;DHT22;4432;50.890;4.744;2023-02-11T13:30:02;9.40;99.90
8792;DHT22;4432;50.890;4.744;2023-02-11T13:35:48;9.50;99.90
8792;DHT22;4432;50.890;4.744;2023-02-11T13:40:41;9.60;99.90
8792;DHT22;4432;50.890;4.744;2023-02-11T13:43:20;9.60;99.90
8792;DHT22;4432;50.890;4.744;2023-02-11T13:45:48;9.60;99.90
8792;DHT22;4432;50.890;4.744;2023-02-11T13:48:21;9.60;99.90
8792;DHT22;4432;50.890;4.744;2023-02-11T13:50:49;9.60;99.90
8792;DHT22;4432;50.890;4.744;2023-02-11T13:53:17;9.60;99.90
8792;DHT22;4432;50.890;4.744;2023-02-11T13:55:49;9.60;99.90
8792;DHT22;4432;50.890;4.744;2023-02-11T13:59:04;9.60;99.90
8792;DHT22;4432;50.890;4.744;2023-02-11T14:01:05;9.60;99.90
8792;DHT22;4432;50.890;4.744;2023-02-11T14:03:33;9.60;99.90
8792;DHT22;4432;50.890;4.744;2023-02-11T14:06:24;9.50;99.90
8792;DHT22;4432;50.890;4.744;2023-02-11T14:11:52;9.50;99.90
8792;DHT22;4432;50.890;4.744;2023-02-11T14:14:28;9.50;99.90
8792;DHT22;4432;50.890;4.744;2023-02-11T14:19:33;9.50;99.90
8792;DHT22;4432;50.890;4.744;2023-02-11T14:39:06;9.50;99.90
8792;DHT22;4432;50.890;4.744;2023-02-11T14:41:43;9.50;99.90
8792;DHT22;4432;50.890;4.744;2023-02-11T14:44:15;9.50;99.90
8792;DHT22;4432;50.890;4.744;2023-02-11T14:46:47;9.50;99.90
8792;DHT22;4432;50.890;4.744;2023-02-11T14:49:25;9.50;99.90
8792;DHT22;4432;50.890;4.744;2023-02-11T14:51:55;9.50;99.90
8792;DHT22;4432;50.890;4.744;2023-02-11T14:54:25;9.50;99.90
8792;DHT22;4432;50.890;4.744;2023-02-11T14:57:15;9.50;99.90
8792;DHT22;4432;50.890;4.744;2023-02-11T15:00:18;9.50;99.90
8792;DHT22;4432;50.890;4.744;2023-02-11T15:02:47;9.50;99.90
8792;DHT22;4432;50.890;4.744;2023-02-11T15:08:03;9.50;99.90
8792;DHT22;4432;50.890;4.744;2023-02-11T15:10:36;9.50;99.90
8792;DHT22;4432;50.890;4.744;2023-02-11T15:13:07;9.50;99.90
8792;DHT22;4432;50.890;4.744;2023-02-11T15:15:33;9.40;99.90
8792;DHT22;4432;50.890;4.744;2023-02-11T15:18:02;9.40;99.90
8792;DHT22;4432;50.890;4.744;2023-02-11T15:20:30;9.40;99.90
8792;DHT22;4432;50.890;4.744;2023-02-11T15:23:02;9.40;99.90
8792;DHT22;4432;50.890;4.744;2023-02-11T15:25:29;9.30;99.90
8792;DHT22;4432;50.890;4.744;2023-02-11T15:27:56;9.30;99.90
8792;DHT22;4432;50.890;4.744;2023-02-11T15:30:26;9.30;99.90
8792;DHT22;4432;50.890;4.744;2023-02-11T15:32:58;9.30;99.90
8792;DHT22;4432;50.890;4.744;2023-02-11T15:35:30;9.30;99.90
8792;DHT22;4432;50.890;4.744;2023-02-11T15:37:57;9.30;99.90
8792;DHT22;4432;50.890;4.744;2023-02-11T15:40:30;9.30;99.90
8792;DHT22;4432;50.890;4.744;2023-02-11T15:43:00;9.30;99.90
8792;DHT22;4432;50.890;4.744;2023-02-11T15:45:41;9.20;99.90
8792;DHT22;4432;50.890;4.744;2023-02-11T15:48:21;9.30;99.90
8792;DHT22;4432;50.890;4.744;2023-02-11T15:50:51;9.20;99.90
8792;DHT22;4432;50.890;4.744;2023-02-11T15:53:26;9.20;99.90
8792;DHT22;4432;50.890;4.744;2023-02-11T15:58:38;9.20;99.90
8792;DHT22;4432;50.890;4.744;2023-02-11T16:01:05;9.20;99.90
8792;DHT22;4432;50.890;4.744;2023-02-11T16:03:31;9.10;99.90
8792;DHT22;4432;50.890;4.744;2023-02-11T16:06:26;9.10;99.90
8792;DHT22;4432;50.890;4.744;2023-02-11T16:09:01;9.10;99.90
8792;DHT22;4432;50.890;4.744;2023-02-11T16:11:34;9.00;99.90
8792;DHT22;4432;50.890;4.744;2023-02-11T16:14:15;9.10;99.90
8792;DHT22;4432;50.890;4.744;2023-02-11T16:16:45;9.00;99.90
8792;DHT22;4432;50.890;4.744;2023-02-11T16:19:18;9.00;99.90
8792;DHT22;4432;50.890;4.744;2023-02-11T16:21:44;9.00;99.90
8792;DHT22;4432;50.890;4.744;2023-02-11T16:24:18;9.00;99.90
8792;DHT22;4432;50.890;4.744;2023-02-11T16:26:50;9.00;99.90
8792;DHT22;4432;50.890;4.744;2023-02-11T16:29:22;8.90;99.90
8792;DHT22;4432;50.890;4.744;2023-02-11T16:31:49;8.90;99.90
8792;DHT22;4432;50.890;4.744;2023-02-11T16:34:20;8.90;99.90
8792;DHT22;4432;50.890;4.744;2023-02-11T16:36:47;8.80;99.90
8792;DHT22;4432;50.890;4.744;2023-02-11T16:39:13;8.80;99.90
8792;DHT22;4432;50.890;4.744;2023-02-11T16:41:39;8.80;99.90
8792;DHT22;4432;50.890;4.744;2023-02-11T16:44:05;8.80;99.90
8792;DHT22;4432;50.890;4.744;2023-02-11T16:46:32;8.80;99.90
8792;DHT22;4432;50.890;4.744;2023-02-11T16:49:14;8.80;99.90
8792;DHT22;4432;50.890;4.744;2023-02-11T16:51:41;8.80;99.90
8792;DHT22;4432;50.890;4.744;2023-02-11T16:54:12;8.80;99.90
8792;DHT22;4432;50.890;4.744;2023-02-11T16:56:39;8.80;99.90
8792;DHT22;4432;50.890;4.744;2023-02-11T16:59:05;8.80;99.90
8792;DHT22;4432;50.890;4.744;2023-02-11T17:01:31;8.80;99.90
8792;DHT22;4432;50.890;4.744;2023-02-11T17:03:57;8.80;99.90
8792;DHT22;4432;50.890;4.744;2023-02-11T17:06:23;8.70;99.90
8792;DHT22;4432;50.890;4.744;2023-02-11T17:08:49;8.70;99.90
8792;DHT22;4432;50.890;4.744;2023-02-11T17:11:15;8.70;99.90
8792;DHT22;4432;50.890;4.744;2023-02-11T17:13:45;8.70;99.90
8792;DHT22;4432;50.890;4.744;2023-02-11T17:16:29;8.70;99.90
8792;DHT22;4432;50.890;4.744;2023-02-11T17:18:55;8.70;99.90
8792;DHT22;4432;50.890;4.744;2023-02-11T17:21:20;8.70;99.90
8792;DHT22;4432;50.890;4.744;2023-02-11T17:23:47;8.70;99.90
8792;DHT22;4432;50.890;4.744;2023-02-11T17:26:13;8.70;99.90
8792;DHT22;4432;50.890;4.744;2023-02-11T17:28:38;8.80;99.90
8792;DHT22;4432;50.890;4.744;2023-02-11T17:31:08;8.80;99.90
8792;DHT22;4432;50.890;4.744;2023-02-11T17:33:34;8.80;99.90
8792;DHT22;4432;50.890;4.744;2023-02-11T17:36:05;8.70;99.90
8792;DHT22;4432;50.890;4.744;2023-02-11T17:38:32;8.70;99.90
8792;DHT22;4432;50.890;4.744;2023-02-11T17:40:59;8.70;99.90
8792;DHT22;4432;50.890;4.744;2023-02-11T17:43:25;8.60;99.90
8792;DHT22;4432;50.890;4.744;2023-02-11T17:45:51;8.60;99.90
8792;DHT22;4432;50.890;4.744;2023-02-11T17:48:17;8.60;99.90
8792;DHT22;4432;50.890;4.744;2023-02-11T17:50:43;8.60;99.90
8792;DHT22;4432;50.890;4.744;2023-02-11T17:53:08;8.60;99.90
8792;DHT22;4432;50.890;4.744;2023-02-11T17:55:34;8.60;99.90
8792;DHT22;4432;50.890;4.744;2023-02-11T17:58:00;8.50;99.90
8792;DHT22;4432;50.890;4.744;2023-02-11T18:00:26;8.50;99.90
8792;DHT22;4432;50.890;4.744;2023-02-11T18:02:55;8.50;99.90
8792;DHT22;4432;50.890;4.744;2023-02-11T18:05:22;8.50;99.90
8792;DHT22;4432;50.890;4.744;2023-02-11T18:07:50;8.50;99.90
8792;DHT22;4432;50.890;4.744;2023-02-11T18:10:16;8.50;99.90
8792;DHT22;4432;50.890;4.744;2023-02-11T18:12:41;8.40;99.90
8792;DHT22;4432;50.890;4.744;2023-02-11T18:15:07;8.40;99.90
8792;DHT22;4432;50.890;4.744;2023-02-11T18:17:33;8.40;99.90
8792;DHT22;4432;50.890;4.744;2023-02-11T18:19:59;8.40;99.90
8792;DHT22;4432;50.890;4.744;2023-02-11T18:22:25;8.40;99.90
8792;DHT22;4432;50.890;4.744;2023-02-11T18:24:52;8.40;99.90
8792;DHT22;4432;50.890;4.744;2023-02-11T18:27:22;8.40;99.90
8792;DHT22;4432;50.890;4.744;2023-02-11T18:29:47;8.40;99.90
8792;DHT22;4432;50.890;4.744;2023-02-11T18:32:13;8.40;99.90
8792;DHT22;4432;50.890;4.744;2023-02-11T18:34:40;8.40;99.90
8792;DHT22;4432;50.890;4.744;2023-02-11T18:37:06;8.40;99.90
8792;DHT22;4432;50.890;4.744;2023-02-11T18:39:31;8.30;99.90
8792;DHT22;4432;50.890;4.744;2023-02-11T18:41:57;8.40;99.90
8792;DHT22;4432;50.890;4.744;2023-02-11T18:44:26;8.40;99.90
8792;DHT22;4432;50.890;4.744;2023-02-11T18:46:52;8.30;99.90
8792;DHT22;4432;50.890;4.744;2023-02-11T18:49:18;8.30;99.90
8792;DHT22;4432;50.890;4.744;2023-02-11T18:51:45;8.30;99.90
8792;DHT22;4432;50.890;4.744;2023-02-11T18:54:11;8.30;99.90
8792;DHT22;4432;50.890;4.744;2023-02-11T18:56:37;8.30;99.90